sensor_id;sensor_type;location;lat;lon;timestamp;temperature;humidity
40828;DHT22;26549;50.918;5.338;2022-12-17T00:01:56;1.90;99.90
40828;DHT22;26549;50.918;5.338;2022-12-17T00:04:40;1.80;99.90
40828;DHT22;26549;50.918;5.338;2022-12-17T00:07:25;1.60;99.90
40828;DHT22;26549;50.918;5.338;2022-12-17T00:10:11;1.60;99.90
40828;DHT22;26549;50.918;5.338;2022-12-17T00:12:55;1.60;99.90
40828;DHT22;26549;50.918;5.338;2022-12-17T00:15:41;1.70;99.90
40828;DHT22;26549;50.918;5.338;2022-12-17T00:18:25;1.50;99.90
40828;DHT22;26549;50.918;5.338;2022-12-17T00:21:09;1.60;99.90
40828;DHT22;26549;50.918;5.338;2022-12-17T00:23:55;1.60;99.90
40828;DHT22;26549;50.918;5.338;2022-12-17T00:26:39;1.50;99.90
40828;DHT22;26549;50.918;5.338;2022-12-17T00:29:24;1.40;99.90
40828;DHT22;26549;50.918;5.338;2022-12-17T00:32:10;1.50;99.90
40828;DHT22;26549;50.918;5.338;2022-12-17T00:34:54;1.40;99.90
40828;DHT22;26549;50.918;5.338;2022-12-17T00:37:39;1.30;99.90
40828;DHT22;26549;50.918;5.338;2022-12-17T00:40:23;1.20;99.90
40828;DHT22;26549;50.918;5.338;2022-12-17T00:43:11;1.10;99.90
40828;DHT22;26549;50.918;5.338;2022-12-17T00:45:56;1.30;99.90
40828;DHT22;26549;50.918;5.338;2022-12-17T00:48:41;1.10;99.90
40828;DHT22;26549;50.918;5.338;2022-12-17T00:51:25;0.90;99.90
40828;DHT22;26549;50.918;5.338;2022-12-17T00:54:10;1.00;99.90
40828;DHT22;26549;50.918;5.338;2022-12-17T00:56:54;1.10;99.90
40828;DHT22;26549;50.918;5.338;2022-12-17T00:59:39;1.10;99.90
40828;DHT22;26549;50.918;5.338;2022-12-17T01:02:24;1.00;99.90
40828;DHT22;26549;50.918;5.338;2022-12-17T01:05:09;1.10;99.90
40828;DHT22;26549;50.918;5.338;2022-12-17T01:07:54;1.00;99.90
40828;DHT22;26549;50.918;5.338;2022-12-17T01:10:39;1.00;99.90
40828;DHT22;26549;50.918;5.338;2022-12-17T01:13:23;0.90;99.90
40828;DHT22;26549;50.918;5.338;2022-12-17T01:16:10;0.90;99.90
40828;DHT22;26549;50.918;5.338;2022-12-17T01:18:55;0.90;99.90
40828;DHT22;26549;50.918;5.338;2022-12-17T01:21:39;1.00;99.90
40828;DHT22;26549;50.918;5.338;2022-12-17T01:24:24;0.90;99.90
40828;DHT22;26549;50.918;5.338;2022-12-17T01:27:09;1.00;99.90
40828;DHT22;26549;50.918;5.338;2022-12-17T01:29:54;0.70;99.90
40828;DHT22;26549;50.918;5.338;2022-12-17T01:32:38;0.70;99.90
40828;DHT22;26549;50.918;5.338;2022-12-17T01:35:23;0.60;99.90
40828;DHT22;26549;50.918;5.338;2022-12-17T01:38:17;0.60;99.90
40828;DHT22;26549;50.918;5.338;2022-12-17T01:41:04;0.40;99.90
40828;DHT22;26549;50.918;5.338;2022-12-17T01:43:49;0.40;99.90
40828;DHT22;26549;50.918;5.338;2022-12-17T01:46:35;0.50;99.90
40828;DHT22;26549;50.918;5.338;2022-12-17T01:49:22;0.40;99.90
40828;DHT22;26549;50.918;5.338;2022-12-17T01:52:09;0.30;99.90
40828;DHT22;26549;50.918;5.338;2022-12-17T01:54:54;0.40;99.90
40828;DHT22;26549;50.918;5.338;2022-12-17T01:57:39;0.40;99.90
40828;DHT22;26549;50.918;5.338;2022-12-17T02:00:25;0.40;99.90
40828;DHT22;26549;50.918;5.338;2022-12-17T02:03:15;0.30;99.90
40828;DHT22;26549;50.918;5.338;2022-12-17T02:06:22;0.30;99.90
40828;DHT22;26549;50.918;5.338;2022-12-17T02:12:33;0.30;99.90
40828;DHT22;26549;50.918;5.338;2022-12-17T02:15:37;0.30;99.90
40828;DHT22;26549;50.918;5.338;2022-12-17T02:18:30;0.20;99.90
40828;DHT22;26549;50.918;5.338;2022-12-17T02:21:14;0.20;99.90
40828;DHT22;26549;50.918;5.338;2022-12-17T02:26:53;0.30;99.90
40828;DHT22;26549;50.918;5.338;2022-12-17T02:29:45;0.20;99.90
40828;DHT22;26549;50.918;5.338;2022-12-17T02:32:34;0.10;99.90
40828;DHT22;26549;50.918;5.338;2022-12-17T02:35:28;0.10;99.90
40828;DHT22;26549;50.918;5.338;2022-12-17T02:38:25;0.00;99.90
40828;DHT22;26549;50.918;5.338;2022-12-17T02:41:30;0.10;99.90
40828;DHT22;26549;50.918;5.338;2022-12-17T02:44:17;-0.10;99.90
40828;DHT22;26549;50.918;5.338;2022-12-17T02:47:05;-0.10;99.90
40828;DHT22;26549;50.918;5.338;2022-12-17T02:49:50;-0.10;99.90
40828;DHT22;26549;50.918;5.338;2022-12-17T02:52:37;0.00;99.90
40828;DHT22;26549;50.918;5.338;2022-12-17T02:55:22;-0.10;99.90
40828;DHT22;26549;50.918;5.338;2022-12-17T02:58:06;0.00;99.90
40828;DHT22;26549;50.918;5.338;2022-12-17T03:00:52;-0.10;99.90
40828;DHT22;26549;50.918;5.338;2022-12-17T03:03:36;-0.10;99.90
40828;DHT22;26549;50.918;5.338;2022-12-17T03:06:20;0.00;99.90
40828;DHT22;26549;50.918;5.338;2022-12-17T03:09:04;-0.10;99.90
40828;DHT22;26549;50.918;5.338;2022-12-17T03:11:48;-0.20;99.90
40828;DHT22;26549;50.918;5.338;2022-12-17T03:14:32;0.00;99.90
40828;DHT22;26549;50.918;5.338;2022-12-17T03:17:16;-0.10;99.90
40828;DHT22;26549;50.918;5.338;2022-12-17T03:20:00;-0.10;99.90
40828;DHT22;26549;50.918;5.338;2022-12-17T03:22:45;-0.20;99.90
40828;DHT22;26549;50.918;5.338;2022-12-17T03:25:29;-0.20;99.90
40828;DHT22;26549;50.918;5.338;2022-12-17T03:28:15;-0.20;99.90
40828;DHT22;26549;50.918;5.338;2022-12-17T03:31:01;-0.20;99.90
40828;DHT22;26549;50.918;5.338;2022-12-17T03:33:45;-0.20;99.90
40828;DHT22;26549;50.918;5.338;2022-12-17T03:36:29;-0.30;99.90
40828;DHT22;26549;50.918;5.338;2022-12-17T03:39:14;-0.30;99.90
40828;DHT22;26549;50.918;5.338;2022-12-17T03:41:58;-0.20;99.90
40828;DHT22;26549;50.918;5.338;2022-12-17T03:44:43;-0.20;99.90
40828;DHT22;26549;50.918;5.338;2022-12-17T03:47:27;-0.20;99.90
40828;DHT22;26549;50.918;5.338;2022-12-17T03:50:11;-0.20;99.90
40828;DHT22;26549;50.918;5.338;2022-12-17T03:52:55;-0.30;99.90
40828;DHT22;26549;50.918;5.338;2022-12-17T03:55:39;-0.10;99.90
40828;DHT22;26549;50.918;5.338;2022-12-17T03:58:23;0.00;99.90
40828;DHT22;26549;50.918;5.338;2022-12-17T04:01:08;0.00;99.90
40828;DHT22;26549;50.918;5.338;2022-12-17T04:03:52;0.00;99.90
40828;DHT22;26549;50.918;5.338;2022-12-17T04:06:36;0.10;99.90
40828;DHT22;26549;50.918;5.338;2022-12-17T04:09:20;0.10;99.90
40828;DHT22;26549;50.918;5.338;2022-12-17T04:12:04;0.10;99.90
40828;DHT22;26549;50.918;5.338;2022-12-17T04:14:49;0.10;99.90
40828;DHT22;26549;50.918;5.338;2022-12-17T04:17:33;0.10;99.90
40828;DHT22;26549;50.918;5.338;2022-12-17T04:20:17;0.20;99.90
40828;DHT22;26549;50.918;5.338;2022-12-17T04:23:02;0.20;99.90
40828;DHT22;26549;50.918;5.338;2022-12-17T04:25:46;0.20;99.90
40828;DHT22;26549;50.918;5.338;2022-12-17T04:28:31;0.20;99.90
40828;DHT22;26549;50.918;5.338;2022-12-17T04:31:16;0.20;99.90
40828;DHT22;26549;50.918;5.338;2022-12-17T04:34:00;0.30;99.90
40828;DHT22;26549;50.918;5.338;2022-12-17T04:36:44;0.20;99.90
40828;DHT22;26549;50.918;5.338;2022-12-17T04:39:28;0.10;99.90
40828;DHT22;26549;50.918;5.338;2022-12-17T04:42:12;0.10;99.90
40828;DHT22;26549;50.918;5.338;2022-12-17T04:44:57;0.10;99.90
40828;DHT22;26549;50.918;5.338;2022-12-17T04:47:41;0.10;99.90
40828;DHT22;26549;50.918;5.338;2022-12-17T04:50:25;0.20;99.90
40828;DHT22;26549;50.918;5.338;2022-12-17T04:53:09;0.10;99.90
40828;DHT22;26549;50.918;5.338;2022-12-17T04:55:54;0.10;99.90
40828;DHT22;26549;50.918;5.338;2022-12-17T04:58:39;0.20;99.90
40828;DHT22;26549;50.918;5.338;2022-12-17T05:01:23;0.00;99.90
40828;DHT22;26549;50.918;5.338;2022-12-17T05:04:07;0.20;99.90
40828;DHT22;26549;50.918;5.338;2022-12-17T05:06:52;0.10;99.90
40828;DHT22;26549;50.918;5.338;2022-12-17T05:09:36;0.20;99.90
40828;DHT22;26549;50.918;5.338;2022-12-17T05:12:20;0.20;99.90
40828;DHT22;26549;50.918;5.338;2022-12-17T05:15:05;0.20;99.90
40828;DHT22;26549;50.918;5.338;2022-12-17T05:17:50;0.00;99.90
40828;DHT22;26549;50.918;5.338;2022-12-17T05:20:34;0.10;99.90
40828;DHT22;26549;50.918;5.338;2022-12-17T05:23:18;0.10;99.90
40828;DHT22;26549;50.918;5.338;2022-12-17T05:26:07;0.10;99.90
40828;DHT22;26549;50.918;5.338;2022-12-17T05:28:53;0.00;99.90
40828;DHT22;26549;50.918;5.338;2022-12-17T05:31:49;-0.20;99.90
40828;DHT22;26549;50.918;5.338;2022-12-17T05:34:34;-0.40;99.90
40828;DHT22;26549;50.918;5.338;2022-12-17T05:37:18;-0.20;99.90
40828;DHT22;26549;50.918;5.338;2022-12-17T05:40:04;-0.20;99.90
40828;DHT22;26549;50.918;5.338;2022-12-17T05:43:03;-0.40;99.90
40828;DHT22;26549;50.918;5.338;2022-12-17T05:45:48;-0.10;99.90
40828;DHT22;26549;50.918;5.338;2022-12-17T05:48:32;-0.30;99.90
40828;DHT22;26549;50.918;5.338;2022-12-17T05:51:17;-0.30;99.90
40828;DHT22;26549;50.918;5.338;2022-12-17T05:54:02;-0.30;99.90
40828;DHT22;26549;50.918;5.338;2022-12-17T05:56:46;-0.30;99.90
40828;DHT22;26549;50.918;5.338;2022-12-17T05:59:30;-0.20;99.90
40828;DHT22;26549;50.918;5.338;2022-12-17T06:02:15;-0.10;99.90
40828;DHT22;26549;50.918;5.338;2022-12-17T06:04:59;-0.20;99.90
40828;DHT22;26549;50.918;5.338;2022-12-17T06:07:43;-0.10;99.90
40828;DHT22;26549;50.918;5.338;2022-12-17T06:10:27;-0.10;99.90
40828;DHT22;26549;50.918;5.338;2022-12-17T06:13:13;-0.10;99.90
40828;DHT22;26549;50.918;5.338;2022-12-17T06:15:57;-0.10;99.90
40828;DHT22;26549;50.918;5.338;2022-12-17T06:18:41;-0.10;99.90
40828;DHT22;26549;50.918;5.338;2022-12-17T06:21:26;0.00;99.90
40828;DHT22;26549;50.918;5.338;2022-12-17T06:24:11;-0.20;99.90
40828;DHT22;26549;50.918;5.338;2022-12-17T06:26:55;0.00;99.90
40828;DHT22;26549;50.918;5.338;2022-12-17T06:29:41;0.10;99.90
40828;DHT22;26549;50.918;5.338;2022-12-17T06:32:25;-0.10;99.90
40828;DHT22;26549;50.918;5.338;2022-12-17T06:35:09;0.00;99.90
40828;DHT22;26549;50.918;5.338;2022-12-17T06:38:05;0.00;99.90
40828;DHT22;26549;50.918;5.338;2022-12-17T06:40:52;0.00;99.90
40828;DHT22;26549;50.918;5.338;2022-12-17T06:43:37;0.10;99.90
40828;DHT22;26549;50.918;5.338;2022-12-17T06:46:21;0.20;99.90
40828;DHT22;26549;50.918;5.338;2022-12-17T06:49:08;0.20;99.90
40828;DHT22;26549;50.918;5.338;2022-12-17T06:51:52;0.30;99.90
40828;DHT22;26549;50.918;5.338;2022-12-17T06:54:36;0.20;99.90
40828;DHT22;26549;50.918;5.338;2022-12-17T06:57:20;0.20;99.90
40828;DHT22;26549;50.918;5.338;2022-12-17T07:00:05;0.30;99.90
40828;DHT22;26549;50.918;5.338;2022-12-17T07:02:57;0.20;99.90
40828;DHT22;26549;50.918;5.338;2022-12-17T07:05:42;0.30;99.90
40828;DHT22;26549;50.918;5.338;2022-12-17T07:08:27;0.20;99.90
40828;DHT22;26549;50.918;5.338;2022-12-17T07:11:12;0.10;99.90
40828;DHT22;26549;50.918;5.338;2022-12-17T07:13:56;0.00;99.90
40828;DHT22;26549;50.918;5.338;2022-12-17T07:16:41;0.00;99.90
40828;DHT22;26549;50.918;5.338;2022-12-17T07:19:26;0.00;99.90
40828;DHT22;26549;50.918;5.338;2022-12-17T07:22:10;0.00;99.90
40828;DHT22;26549;50.918;5.338;2022-12-17T07:24:54;0.10;99.90
40828;DHT22;26549;50.918;5.338;2022-12-17T07:27:39;-0.20;99.90
40828;DHT22;26549;50.918;5.338;2022-12-17T07:30:23;0.00;99.90
40828;DHT22;26549;50.918;5.338;2022-12-17T07:33:09;0.00;99.90
40828;DHT22;26549;50.918;5.338;2022-12-17T07:35:53;0.20;99.90
40828;DHT22;26549;50.918;5.338;2022-12-17T07:38:38;0.20;99.90
40828;DHT22;26549;50.918;5.338;2022-12-17T07:41:22;0.40;99.90
40828;DHT22;26549;50.918;5.338;2022-12-17T07:44:06;0.10;99.90
40828;DHT22;26549;50.918;5.338;2022-12-17T07:46:50;0.30;99.90
40828;DHT22;26549;50.918;5.338;2022-12-17T07:49:35;0.00;99.90
40828;DHT22;26549;50.918;5.338;2022-12-17T07:52:19;0.30;99.90
40828;DHT22;26549;50.918;5.338;2022-12-17T07:55:04;0.50;99.90
40828;DHT22;26549;50.918;5.338;2022-12-17T07:58:00;0.20;99.90
40828;DHT22;26549;50.918;5.338;2022-12-17T08:00:45;0.10;99.90
40828;DHT22;26549;50.918;5.338;2022-12-17T08:03:30;0.50;99.90
40828;DHT22;26549;50.918;5.338;2022-12-17T08:06:15;0.40;99.90
40828;DHT22;26549;50.918;5.338;2022-12-17T08:09:00;0.00;99.90
40828;DHT22;26549;50.918;5.338;2022-12-17T08:11:44;0.20;99.90
40828;DHT22;26549;50.918;5.338;2022-12-17T08:14:28;0.20;99.90
40828;DHT22;26549;50.918;5.338;2022-12-17T08:17:13;0.20;99.90
40828;DHT22;26549;50.918;5.338;2022-12-17T08:19:58;0.40;99.90
40828;DHT22;26549;50.918;5.338;2022-12-17T08:22:42;0.70;99.90
40828;DHT22;26549;50.918;5.338;2022-12-17T08:25:26;0.30;99.90
40828;DHT22;26549;50.918;5.338;2022-12-17T08:28:10;0.70;99.90
40828;DHT22;26549;50.918;5.338;2022-12-17T08:30:54;0.40;99.90
40828;DHT22;26549;50.918;5.338;2022-12-17T08:33:38;0.30;99.90
40828;DHT22;26549;50.918;5.338;2022-12-17T08:36:23;0.70;99.90
40828;DHT22;26549;50.918;5.338;2022-12-17T08:39:07;0.20;99.90
40828;DHT22;26549;50.918;5.338;2022-12-17T08:41:51;0.40;99.90
40828;DHT22;26549;50.918;5.338;2022-12-17T08:44:35;0.50;99.90
40828;DHT22;26549;50.918;5.338;2022-12-17T08:47:19;0.40;99.90
40828;DHT22;26549;50.918;5.338;2022-12-17T08:50:04;0.80;99.90
40828;DHT22;26549;50.918;5.338;2022-12-17T08:52:57;0.30;99.90
40828;DHT22;26549;50.918;5.338;2022-12-17T08:55:43;0.30;99.90
40828;DHT22;26549;50.918;5.338;2022-12-17T08:58:28;0.40;99.90
40828;DHT22;26549;50.918;5.338;2022-12-17T09:01:12;0.20;99.90
40828;DHT22;26549;50.918;5.338;2022-12-17T09:03:56;1.00;99.90
40828;DHT22;26549;50.918;5.338;2022-12-17T09:06:40;0.10;99.90
40828;DHT22;26549;50.918;5.338;2022-12-17T09:09:25;0.30;99.90
40828;DHT22;26549;50.918;5.338;2022-12-17T09:12:09;-0.10;99.90
40828;DHT22;26549;50.918;5.338;2022-12-17T09:14:53;0.30;99.90
40828;DHT22;26549;50.918;5.338;2022-12-17T09:17:37;0.50;99.90
40828;DHT22;26549;50.918;5.338;2022-12-17T09:20:21;0.60;99.90
40828;DHT22;26549;50.918;5.338;2022-12-17T09:23:06;0.70;99.90
40828;DHT22;26549;50.918;5.338;2022-12-17T09:25:54;1.10;99.90
40828;DHT22;26549;50.918;5.338;2022-12-17T09:28:39;0.70;99.90
40828;DHT22;26549;50.918;5.338;2022-12-17T09:31:23;0.30;99.90
40828;DHT22;26549;50.918;5.338;2022-12-17T09:34:08;0.00;99.90
40828;DHT22;26549;50.918;5.338;2022-12-17T09:37:03;0.20;99.90
40828;DHT22;26549;50.918;5.338;2022-12-17T09:39:47;0.80;99.90
40828;DHT22;26549;50.918;5.338;2022-12-17T09:42:42;0.20;99.90
40828;DHT22;26549;50.918;5.338;2022-12-17T09:45:30;0.00;99.90
40828;DHT22;26549;50.918;5.338;2022-12-17T09:48:37;0.00;99.90
40828;DHT22;26549;50.918;5.338;2022-12-17T09:51:25;-0.20;99.90
40828;DHT22;26549;50.918;5.338;2022-12-17T09:54:36;0.10;99.90
40828;DHT22;26549;50.918;5.338;2022-12-17T09:57:24;-0.30;99.90
40828;DHT22;26549;50.918;5.338;2022-12-17T10:00:14;0.60;99.90
40828;DHT22;26549;50.918;5.338;2022-12-17T10:03:00;-0.10;99.90
40828;DHT22;26549;50.918;5.338;2022-12-17T10:05:45;-0.50;99.90
40828;DHT22;26549;50.918;5.338;2022-12-17T10:08:29;-0.10;99.90
40828;DHT22;26549;50.918;5.338;2022-12-17T10:11:26;-0.10;99.90
40828;DHT22;26549;50.918;5.338;2022-12-17T10:14:16;-0.10;99.90
40828;DHT22;26549;50.918;5.338;2022-12-17T10:17:01;-0.10;99.90
40828;DHT22;26549;50.918;5.338;2022-12-17T10:20:28;0.60;99.90
40828;DHT22;26549;50.918;5.338;2022-12-17T10:23:27;1.10;99.90
40828;DHT22;26549;50.918;5.338;2022-12-17T10:26:21;0.00;99.90
40828;DHT22;26549;50.918;5.338;2022-12-17T10:29:11;0.60;99.90
40828;DHT22;26549;50.918;5.338;2022-12-17T10:31:59;0.40;99.90
40828;DHT22;26549;50.918;5.338;2022-12-17T10:34:45;0.40;99.90
40828;DHT22;26549;50.918;5.338;2022-12-17T10:37:30;-0.10;99.90
40828;DHT22;26549;50.918;5.338;2022-12-17T10:40:31;0.90;99.90
40828;DHT22;26549;50.918;5.338;2022-12-17T10:43:27;-0.20;99.90
40828;DHT22;26549;50.918;5.338;2022-12-17T10:46:22;0.20;99.90
40828;DHT22;26549;50.918;5.338;2022-12-17T10:49:13;0.90;99.90
40828;DHT22;26549;50.918;5.338;2022-12-17T10:52:04;0.60;99.90
40828;DHT22;26549;50.918;5.338;2022-12-17T10:54:59;0.20;99.90
40828;DHT22;26549;50.918;5.338;2022-12-17T10:57:45;0.80;99.90
40828;DHT22;26549;50.918;5.338;2022-12-17T11:00:33;0.60;99.90
40828;DHT22;26549;50.918;5.338;2022-12-17T11:06:15;0.10;99.90
40828;DHT22;26549;50.918;5.338;2022-12-17T11:09:02;0.80;99.90
40828;DHT22;26549;50.918;5.338;2022-12-17T11:11:47;1.00;99.90
40828;DHT22;26549;50.918;5.338;2022-12-17T11:14:45;0.70;99.90
40828;DHT22;26549;50.918;5.338;2022-12-17T11:17:33;1.50;99.90
40828;DHT22;26549;50.918;5.338;2022-12-17T11:20:27;2.00;99.90
40828;DHT22;26549;50.918;5.338;2022-12-17T11:23:18;0.10;99.90
40828;DHT22;26549;50.918;5.338;2022-12-17T11:26:11;0.50;99.90
40828;DHT22;26549;50.918;5.338;2022-12-17T11:28:58;0.40;99.90
40828;DHT22;26549;50.918;5.338;2022-12-17T11:32:09;0.20;99.90
40828;DHT22;26549;50.918;5.338;2022-12-17T11:35:18;0.50;99.90
40828;DHT22;26549;50.918;5.338;2022-12-17T11:38:10;0.20;99.90
40828;DHT22;26549;50.918;5.338;2022-12-17T11:47:08;0.90;99.90
40828;DHT22;26549;50.918;5.338;2022-12-17T11:50:12;0.80;99.90
40828;DHT22;26549;50.918;5.338;2022-12-17T11:53:10;0.40;99.90
40828;DHT22;26549;50.918;5.338;2022-12-17T11:58:52;0.40;99.90
40828;DHT22;26549;50.918;5.338;2022-12-17T12:01:48;1.30;99.90
40828;DHT22;26549;50.918;5.338;2022-12-17T12:05:09;0.90;99.90
40828;DHT22;26549;50.918;5.338;2022-12-17T12:08:04;0.60;99.90
40828;DHT22;26549;50.918;5.338;2022-12-17T12:11:10;0.70;99.90
40828;DHT22;26549;50.918;5.338;2022-12-17T12:23:30;0.50;99.90
40828;DHT22;26549;50.918;5.338;2022-12-17T12:26:23;0.60;99.90
40828;DHT22;26549;50.918;5.338;2022-12-17T12:29:34;0.80;99.90
40828;DHT22;26549;50.918;5.338;2022-12-17T12:35:17;2.60;99.90
40828;DHT22;26549;50.918;5.338;2022-12-17T12:38:04;1.30;99.90
40828;DHT22;26549;50.918;5.338;2022-12-17T12:40:52;1.20;99.90
40828;DHT22;26549;50.918;5.338;2022-12-17T12:43:41;2.70;99.90
40828;DHT22;26549;50.918;5.338;2022-12-17T12:46:42;1.20;99.90
40828;DHT22;26549;50.918;5.338;2022-12-17T12:52:20;2.20;99.90
40828;DHT22;26549;50.918;5.338;2022-12-17T12:55:05;1.20;99.90
40828;DHT22;26549;50.918;5.338;2022-12-17T12:58:04;1.20;99.90
40828;DHT22;26549;50.918;5.338;2022-12-17T13:06:51;1.20;99.90
40828;DHT22;26549;50.918;5.338;2022-12-17T13:16:58;2.30;99.90
40828;DHT22;26549;50.918;5.338;2022-12-17T13:19:40;1.90;99.90
40828;DHT22;26549;50.918;5.338;2022-12-17T13:24:42;2.30;99.90
40828;DHT22;26549;50.918;5.338;2022-12-17T13:29:52;1.40;99.90
40828;DHT22;26549;50.918;5.338;2022-12-17T13:37:59;1.40;99.90
40828;DHT22;26549;50.918;5.338;2022-12-17T13:41:02;1.40;99.90
40828;DHT22;26549;50.918;5.338;2022-12-17T13:43:32;1.50;99.90
40828;DHT22;26549;50.918;5.338;2022-12-17T13:46:00;1.70;99.90
40828;DHT22;26549;50.918;5.338;2022-12-17T13:48:27;2.50;99.90
40828;DHT22;26549;50.918;5.338;2022-12-17T13:50:56;1.60;99.90
40828;DHT22;26549;50.918;5.338;2022-12-17T13:53:22;2.20;99.90
40828;DHT22;26549;50.918;5.338;2022-12-17T13:55:52;1.90;99.90
40828;DHT22;26549;50.918;5.338;2022-12-17T13:58:28;1.90;99.90
40828;DHT22;26549;50.918;5.338;2022-12-17T14:01:11;1.70;99.90
40828;DHT22;26549;50.918;5.338;2022-12-17T14:03:37;2.50;99.90
40828;DHT22;26549;50.918;5.338;2022-12-17T14:06:09;2.40;99.90
40828;DHT22;26549;50.918;5.338;2022-12-17T14:08:37;2.20;99.90
40828;DHT22;26549;50.918;5.338;2022-12-17T14:11:02;2.40;99.90
40828;DHT22;26549;50.918;5.338;2022-12-17T14:13:48;1.50;99.90
40828;DHT22;26549;50.918;5.338;2022-12-17T14:16:19;2.60;99.90
40828;DHT22;26549;50.918;5.338;2022-12-17T14:18:55;2.60;99.90
40828;DHT22;26549;50.918;5.338;2022-12-17T14:21:22;1.40;99.90
40828;DHT22;26549;50.918;5.338;2022-12-17T14:23:50;1.90;99.90
40828;DHT22;26549;50.918;5.338;2022-12-17T14:26:17;2.60;99.90
40828;DHT22;26549;50.918;5.338;2022-12-17T14:28:53;2.60;99.90
40828;DHT22;26549;50.918;5.338;2022-12-17T14:31:26;2.40;99.90
40828;DHT22;26549;50.918;5.338;2022-12-17T14:34:04;1.70;99.90
40828;DHT22;26549;50.918;5.338;2022-12-17T14:42:06;1.50;99.90
40828;DHT22;26549;50.918;5.338;2022-12-17T14:45:03;1.50;99.90
40828;DHT22;26549;50.918;5.338;2022-12-17T14:47:35;1.60;99.90
40828;DHT22;26549;50.918;5.338;2022-12-17T14:55:30;1.60;99.90
40828;DHT22;26549;50.918;5.338;2022-12-17T15:00:33;1.50;99.90
40828;DHT22;26549;50.918;5.338;2022-12-17T15:03:01;1.60;99.90
40828;DHT22;26549;50.918;5.338;2022-12-17T15:05:28;1.50;99.90
40828;DHT22;26549;50.918;5.338;2022-12-17T15:07:53;1.70;99.90
40828;DHT22;26549;50.918;5.338;2022-12-17T15:10:22;1.50;99.90
40828;DHT22;26549;50.918;5.338;2022-12-17T15:12:51;1.60;99.90
40828;DHT22;26549;50.918;5.338;2022-12-17T15:15:17;1.60;99.90
40828;DHT22;26549;50.918;5.338;2022-12-17T15:17:47;1.60;99.90
40828;DHT22;26549;50.918;5.338;2022-12-17T15:20:17;1.60;99.90
40828;DHT22;26549;50.918;5.338;2022-12-17T15:22:44;1.60;99.90
40828;DHT22;26549;50.918;5.338;2022-12-17T15:25:16;1.40;99.90
40828;DHT22;26549;50.918;5.338;2022-12-17T15:27:42;1.50;99.90
40828;DHT22;26549;50.918;5.338;2022-12-17T15:30:16;1.70;99.90
40828;DHT22;26549;50.918;5.338;2022-12-17T15:32:42;1.50;99.90
40828;DHT22;26549;50.918;5.338;2022-12-17T15:35:09;1.50;99.90
40828;DHT22;26549;50.918;5.338;2022-12-17T15:37:35;1.40;99.90
40828;DHT22;26549;50.918;5.338;2022-12-17T15:40:03;1.70;99.90
40828;DHT22;26549;50.918;5.338;2022-12-17T15:42:30;1.30;99.90
40828;DHT22;26549;50.918;5.338;2022-12-17T15:45:15;1.30;99.90
40828;DHT22;26549;50.918;5.338;2022-12-17T15:47:40;1.10;99.90
40828;DHT22;26549;50.918;5.338;2022-12-17T15:50:07;1.20;99.90
40828;DHT22;26549;50.918;5.338;2022-12-17T15:52:34;1.20;99.90
40828;DHT22;26549;50.918;5.338;2022-12-17T15:55:01;1.30;99.90
40828;DHT22;26549;50.918;5.338;2022-12-17T15:57:27;1.20;99.90
40828;DHT22;26549;50.918;5.338;2022-12-17T15:59:53;1.20;99.90
40828;DHT22;26549;50.918;5.338;2022-12-17T16:02:20;1.10;99.90
40828;DHT22;26549;50.918;5.338;2022-12-17T16:04:46;1.20;99.90
40828;DHT22;26549;50.918;5.338;2022-12-17T16:07:13;1.00;99.90
40828;DHT22;26549;50.918;5.338;2022-12-17T16:09:39;0.90;99.90
40828;DHT22;26549;50.918;5.338;2022-12-17T16:12:05;0.90;99.90
40828;DHT22;26549;50.918;5.338;2022-12-17T16:14:32;0.80;99.90
40828;DHT22;26549;50.918;5.338;2022-12-17T16:16:58;1.00;99.90
40828;DHT22;26549;50.918;5.338;2022-12-17T16:19:25;0.90;99.90
40828;DHT22;26549;50.918;5.338;2022-12-17T16:21:50;0.90;99.90
40828;DHT22;26549;50.918;5.338;2022-12-17T16:24:16;1.00;99.90
40828;DHT22;26549;50.918;5.338;2022-12-17T16:26:42;0.80;99.90
40828;DHT22;26549;50.918;5.338;2022-12-17T16:29:09;0.60;99.90
40828;DHT22;26549;50.918;5.338;2022-12-17T16:31:34;0.70;99.90
40828;DHT22;26549;50.918;5.338;2022-12-17T16:34:01;0.60;99.90
40828;DHT22;26549;50.918;5.338;2022-12-17T16:36:27;1.00;99.90
40828;DHT22;26549;50.918;5.338;2022-12-17T16:38:53;0.70;99.90
40828;DHT22;26549;50.918;5.338;2022-12-17T16:41:20;0.50;99.90
40828;DHT22;26549;50.918;5.338;2022-12-17T16:43:47;0.50;99.90
40828;DHT22;26549;50.918;5.338;2022-12-17T16:46:26;0.50;99.90
40828;DHT22;26549;50.918;5.338;2022-12-17T16:48:53;0.50;99.90
40828;DHT22;26549;50.918;5.338;2022-12-17T16:51:21;0.80;99.90
40828;DHT22;26549;50.918;5.338;2022-12-17T16:53:47;0.40;99.90
40828;DHT22;26549;50.918;5.338;2022-12-17T16:56:22;0.40;99.90
40828;DHT22;26549;50.918;5.338;2022-12-17T16:58:48;0.50;99.90
40828;DHT22;26549;50.918;5.338;2022-12-17T17:01:18;0.40;99.90
40828;DHT22;26549;50.918;5.338;2022-12-17T17:03:44;0.70;99.90
40828;DHT22;26549;50.918;5.338;2022-12-17T17:06:10;0.50;99.90
40828;DHT22;26549;50.918;5.338;2022-12-17T17:08:37;0.40;99.90
40828;DHT22;26549;50.918;5.338;2022-12-17T17:11:17;0.40;99.90
40828;DHT22;26549;50.918;5.338;2022-12-17T17:13:51;0.30;99.90
40828;DHT22;26549;50.918;5.338;2022-12-17T17:16:23;0.20;99.90
40828;DHT22;26549;50.918;5.338;2022-12-17T17:18:49;0.30;99.90
40828;DHT22;26549;50.918;5.338;2022-12-17T17:23:52;0.10;99.90
40828;DHT22;26549;50.918;5.338;2022-12-17T17:26:19;0.10;99.90
40828;DHT22;26549;50.918;5.338;2022-12-17T17:28:46;0.10;99.90
40828;DHT22;26549;50.918;5.338;2022-12-17T17:31:13;0.30;99.90
40828;DHT22;26549;50.918;5.338;2022-12-17T17:33:42;0.00;99.90
40828;DHT22;26549;50.918;5.338;2022-12-17T17:36:11;0.40;99.90
40828;DHT22;26549;50.918;5.338;2022-12-17T17:38:38;0.20;99.90
40828;DHT22;26549;50.918;5.338;2022-12-17T17:41:07;0.00;99.90
40828;DHT22;26549;50.918;5.338;2022-12-17T17:43:33;-0.20;99.90
40828;DHT22;26549;50.918;5.338;2022-12-17T17:48:35;-0.20;99.90
40828;DHT22;26549;50.918;5.338;2022-12-17T17:51:03;-0.20;99.90
40828;DHT22;26549;50.918;5.338;2022-12-17T17:53:31;-0.40;99.90
40828;DHT22;26549;50.918;5.338;2022-12-17T17:56:09;-0.40;99.90
40828;DHT22;26549;50.918;5.338;2022-12-17T17:58:41;-0.50;99.90
40828;DHT22;26549;50.918;5.338;2022-12-17T18:01:12;-0.50;99.90
40828;DHT22;26549;50.918;5.338;2022-12-17T18:03:38;-0.50;99.90
40828;DHT22;26549;50.918;5.338;2022-12-17T18:06:06;-0.50;99.90
40828;DHT22;26549;50.918;5.338;2022-12-17T18:08:33;-0.60;99.90
40828;DHT22;26549;50.918;5.338;2022-12-17T18:11:01;-0.50;99.90
40828;DHT22;26549;50.918;5.338;2022-12-17T18:13:28;-0.40;99.90
40828;DHT22;26549;50.918;5.338;2022-12-17T18:16:15;-0.60;99.90
40828;DHT22;26549;50.918;5.338;2022-12-17T18:18:43;-0.60;99.90
40828;DHT22;26549;50.918;5.338;2022-12-17T18:21:12;-0.70;99.90
40828;DHT22;26549;50.918;5.338;2022-12-17T18:23:39;-0.80;99.90
40828;DHT22;26549;50.918;5.338;2022-12-17T18:26:15;-0.70;99.90
40828;DHT22;26549;50.918;5.338;2022-12-17T18:28:44;-0.70;99.90
40828;DHT22;26549;50.918;5.338;2022-12-17T18:31:20;-1.20;99.90
40828;DHT22;26549;50.918;5.338;2022-12-17T18:33:51;-1.00;99.90